Other Surface Observations
Issued by NWS Missoula, MT

Home | Current Version | Previous Version | Text Only | Print | Product List | Glossary On
Versions: 1 2 3 4 5 6 7 8 9 10 11 12 13 14 15 16 17 18 19 20 21 22 23 24 25 26 27 28 29 30 31 32 33 34 35 36 37 38 39 40 41 42 43 44 45 46 47 48 49 50
000
SXUS55 KMSO 271603
OSOMSO
MONTANA AWOS SUMMARY
NATIONAL WEATHER SERVICE MISSOULA MT
903 AM MST FRI MAR 27 2015

Montana AWOS Reports

TWIN BRIDGES|K7S1 271555Z AUTO 00000KT 40SM 08/01 A3018 RMK AO1 T00830011
ROUNDUP     |KRPX 271555Z AUTO 26014G20KT 40SM 16/00 A2996 RMK AO1 T01560000
MALTA       |KM75 271555Z AUTO 28013KT 40SM 13/04 A2994 RMK AO1 T01330039
SCOBEY      |K9S2 271555Z AUTO 28005KT 40SM 08/02 A2992 RMK AO1 T00830017
LAUREL      |K6S8 271555Z AUTO 00000KT 40SM 12/02 A3007 RMK AO1 T01170022
PLAINS      |KS34 271555Z AUTO 1/4SM 04/02 A3016 RMK AO1 T00390022




USA.gov is the U.S. government's official web portal to all federal, state and local government web resources and services.